Terminal Aerodrome Forecast
Issued by NWS

Home | Current Version | Previous Version | Text Only | Print | Product List | Glossary On
Versions: 1 2 3 4 5 6 7 8 9 10 11 12 13 14 15 16
000
FTUS43 KGRB 192300
TAFAUW
TAF
KAUW 192334Z 2000/2024 10008KT P6SM SCT035 BKN070
     FM200300 07005KT P6SM BKN030 OVC050
     FM200600 35006KT P6SM -RA BKN009 OVC018
      TEMPO 2007/2010 6SM -RA OVC009
     FM201200 30009KT P6SM SCT010 OVC018
     FM201500 29016G25KT P6SM OVC020
     FM202000 28015G25KT P6SM SCT025 OVC040=

USA.gov is the U.S. government's official web portal to all federal, state and local government web resources and services.